Time;durP1;ratioP1;P1;durP2;ratioP2;P2;SDS_P1;SDS_P2;PMS_P1;PMS_P2;Temp;Humidity;BMP_temperature;BMP_pressure;BME280_temperature;BME280_humidity;BME280_pressure;Samples;Min_cycle;Max_cycle;Signal;HPM_P1;HPM_P2
2021/07/04 00:00:40;;;;;;;2.35;1.95;;;;;;;;;;4404394;32;20284;-55
2021/07/04 00:03:06;;;;;;;3.90;1.85;;;;;;;;;;4404377;32;20229;-55
2021/07/04 00:05:39;;;;;;;2.05;1.85;;;;;;;;;;4397753;32;20268;-54
2021/07/04 00:08:06;;;;;;;5.57;1.92;;;;;;;;;;4402048;32;20218;-54
2021/07/04 00:10:34;;;;;;;2.25;1.87;;;;;;;;;;4404449;32;20246;-55
2021/07/04 00:13:00;;;;;;;2.70;1.85;;;;;;;;;;4403587;32;20620;-55
2021/07/04 00:15:28;;;;;;;2.65;2.00;;;;;;;;;;4402539;32;20300;-55
2021/07/04 00:17:53;;;;;;;1.87;1.62;;;;;;;;;;4389471;32;20289;-54
2021/07/04 00:20:20;;;;;;;2.50;1.67;;;;;;;;;;4389453;32;20689;-55
2021/07/04 00:22:47;;;;;;;1.85;1.75;;;;;;;;;;4387895;32;20677;-54
2021/07/04 00:25:15;;;;;;;1.40;1.25;;;;;;;;;;4388934;32;20245;-54
2021/07/04 00:27:40;;;;;;;1.90;1.70;;;;;;;;;;4389199;32;20594;-55
2021/07/04 00:30:10;;;;;;;2.30;1.75;;;;;;;;;;4389374;32;20285;-54
2021/07/04 00:32:35;;;;;;;1.95;1.83;;;;;;;;;;4402240;32;20241;-55
2021/07/04 00:35:01;;;;;;;1.75;1.58;;;;;;;;;;4404071;32;20269;-55
2021/07/04 00:37:27;;;;;;;2.92;2.17;;;;;;;;;;4403915;32;20308;-54
2021/07/04 00:39:52;;;;;;;1.73;1.48;;;;;;;;;;4404172;32;20774;-55
2021/07/04 00:42:18;;;;;;;1.85;1.60;;;;;;;;;;4403992;32;20217;-54
2021/07/04 00:44:43;;;;;;;2.17;1.60;;;;;;;;;;4403971;32;20308;-54
2021/07/04 00:47:09;;;;;;;2.05;1.83;;;;;;;;;;4403979;32;20236;-54
2021/07/04 00:49:34;;;;;;;2.30;1.70;;;;;;;;;;4401900;32;20290;-55
2021/07/04 00:52:01;;;;;;;2.85;2.20;;;;;;;;;;4402751;32;20301;-55
2021/07/04 00:54:27;;;;;;;2.33;1.62;;;;;;;;;;4403797;32;20618;-54
2021/07/04 00:56:53;;;;;;;2.90;1.92;;;;;;;;;;4403883;32;20286;-55
2021/07/04 00:59:20;;;;;;;2.08;1.87;;;;;;;;;;4403558;32;20221;-55
2021/07/04 01:01:46;;;;;;;3.60;1.65;;;;;;;;;;4402807;32;20243;-54
2021/07/04 01:04:12;;;;;;;5.43;3.78;;;;;;;;;;4403723;32;20566;-54
2021/07/04 01:06:39;;;;;;;3.85;3.28;;;;;;;;;;4403013;32;20500;-54
2021/07/04 01:09:04;;;;;;;7.03;6.32;;;;;;;;;;4403764;32;20243;-55
2021/07/04 01:11:30;;;;;;;4.87;4.25;;;;;;;;;;4389893;32;20296;-54
2021/07/04 01:13:56;;;;;;;5.85;4.65;;;;;;;;;;4389866;32;20230;-54
2021/07/04 01:16:21;;;;;;;7.90;3.25;;;;;;;;;;4403422;32;20271;-53
2021/07/04 01:18:47;;;;;;;3.08;2.62;;;;;;;;;;4403380;32;20216;-55
2021/07/04 01:21:15;;;;;;;2.92;2.62;;;;;;;;;;4403715;32;20282;-55
2021/07/04 01:23:40;;;;;;;6.40;4.80;;;;;;;;;;4403206;32;20206;-54
2021/07/04 01:26:06;;;;;;;7.60;4.37;;;;;;;;;;4403805;32;20381;-54
2021/07/04 01:28:31;;;;;;;7.65;5.50;;;;;;;;;;4403587;32;20188;-55
2021/07/04 01:30:58;;;;;;;4.50;3.47;;;;;;;;;;4403256;32;20317;-55
2021/07/04 01:33:26;;;;;;;3.28;2.83;;;;;;;;;;4403186;32;20220;-55
2021/07/04 01:35:51;;;;;;;2.80;2.17;;;;;;;;;;4403312;32;20221;-55
2021/07/04 01:38:17;;;;;;;3.62;2.40;;;;;;;;;;4402191;32;20251;-54
2021/07/04 01:40:43;;;;;;;3.58;2.83;;;;;;;;;;4403593;32;20724;-54
2021/07/04 01:43:09;;;;;;;2.45;1.90;;;;;;;;;;4403492;32;20282;-54
2021/07/04 01:45:37;;;;;;;1.85;1.70;;;;;;;;;;4403364;32;20268;-55
2021/07/04 01:48:03;;;;;;;2.42;1.70;;;;;;;;;;4403603;32;20319;-55
2021/07/04 01:50:35;;;;;;;1.87;1.55;;;;;;;;;;4403291;32;20281;-56
2021/07/04 01:53:00;;;;;;;2.30;2.05;;;;;;;;;;4403360;32;20222;-55
2021/07/04 01:55:26;;;;;;;3.97;2.33;;;;;;;;;;4403018;32;20826;-54
2021/07/04 01:57:53;;;;;;;2.72;2.05;;;;;;;;;;4403321;32;20521;-55
2021/07/04 02:00:25;;;;;;;2.40;2.05;;;;;;;;;;4402552;32;20291;-54
2021/07/04 02:02:53;;;;;;;2.22;2.03;;;;;;;;;;4405100;32;20234;-54
2021/07/04 02:05:19;;;;;;;3.87;1.83;;;;;;;;;;4405493;32;20223;-55
2021/07/04 02:07:45;;;;;;;2.55;2.20;;;;;;;;;;4405656;32;20562;-54
2021/07/04 02:10:16;;;;;;;2.67;2.30;;;;;;;;;;4406343;32;20276;-54
2021/07/04 02:12:41;;;;;;;2.55;2.28;;;;;;;;;;4405937;32;20251;-54
2021/07/04 02:15:25;;;;;;;2.95;2.20;;;;;;;;;;4393714;32;20317;-54
2021/07/04 02:17:50;;;;;;;2.60;1.92;;;;;;;;;;4389910;32;20252;-54
2021/07/04 02:20:30;;;;;;;2.20;2.00;;;;;;;;;;4389183;32;20328;-55
2021/07/04 02:22:56;;;;;;;2.62;2.28;;;;;;;;;;4390750;32;20233;-55
2021/07/04 02:25:21;;;;;;;3.03;2.03;;;;;;;;;;4390957;32;20284;-55
2021/07/04 02:27:47;;;;;;;2.20;2.00;;;;;;;;;;4389275;32;20232;-55
2021/07/04 02:30:13;;;;;;;4.95;2.00;;;;;;;;;;4389969;32;20363;-55
2021/07/04 02:32:38;;;;;;;3.45;2.45;;;;;;;;;;4391143;32;20242;-54
2021/07/04 02:35:05;;;;;;;2.42;2.17;;;;;;;;;;4390481;32;20341;-54
2021/07/04 02:37:31;;;;;;;2.95;2.22;;;;;;;;;;4389573;32;20764;-54
2021/07/04 02:39:56;;;;;;;3.15;2.37;;;;;;;;;;4389684;32;20296;-55
2021/07/04 02:42:22;;;;;;;3.60;2.72;;;;;;;;;;4389492;32;20356;-54
2021/07/04 02:44:47;;;;;;;2.95;1.98;;;;;;;;;;4390852;32;20442;-55
2021/07/04 02:47:13;;;;;;;2.92;2.10;;;;;;;;;;4390594;32;20302;-54
2021/07/04 02:49:38;;;;;;;2.55;2.20;;;;;;;;;;4390159;32;20202;-54
2021/07/04 02:52:04;;;;;;;2.45;1.83;;;;;;;;;;4397186;32;20237;-55
2021/07/04 02:54:30;;;;;;;1.95;1.62;;;;;;;;;;4405735;32;20296;-54
2021/07/04 02:56:55;;;;;;;2.15;1.95;;;;;;;;;;4405595;32;20742;-54
2021/07/04 02:59:21;;;;;;;2.20;2.00;;;;;;;;;;4405298;32;20288;-54
2021/07/04 03:01:46;;;;;;;2.35;1.80;;;;;;;;;;4405617;32;20748;-54
2021/07/04 03:04:12;;;;;;;1.98;1.55;;;;;;;;;;4405206;32;20622;-55
2021/07/04 03:06:37;;;;;;;2.00;1.83;;;;;;;;;;4404803;32;20686;-53
2021/07/04 03:09:04;;;;;;;2.58;2.15;;;;;;;;;;4405060;32;20217;-55
2021/07/04 03:11:29;;;;;;;4.30;2.37;;;;;;;;;;4405264;32;20253;-53
2021/07/04 03:13:55;;;;;;;5.35;2.75;;;;;;;;;;4404209;32;20222;-53
2021/07/04 03:16:20;;;;;;;6.10;3.08;;;;;;;;;;4404449;32;20377;-54
2021/07/04 03:18:46;;;;;;;2.85;2.53;;;;;;;;;;4405039;32;20233;-54
2021/07/04 03:21:11;;;;;;;2.75;2.30;;;;;;;;;;4405063;32;20244;-53
2021/07/04 03:23:37;;;;;;;6.15;4.68;;;;;;;;;;4404450;32;20318;-54
2021/07/04 03:26:02;;;;;;;3.87;3.22;;;;;;;;;;4403663;32;20679;-55
2021/07/04 03:28:28;;;;;;;4.12;3.05;;;;;;;;;;4404966;32;20233;-56
2021/07/04 03:30:53;;;;;;;4.03;3.58;;;;;;;;;;4403704;32;20309;-55
2021/07/04 03:33:19;;;;;;;6.15;5.00;;;;;;;;;;4404781;32;20258;-53
2021/07/04 03:35:44;;;;;;;6.00;4.12;;;;;;;;;;4404885;32;20290;-53
2021/07/04 03:38:10;;;;;;;3.42;3.10;;;;;;;;;;4404961;32;20691;-53
2021/07/04 03:40:35;;;;;;;4.12;3.58;;;;;;;;;;4405297;32;20720;-56
2021/07/04 03:43:01;;;;;;;4.20;3.35;;;;;;;;;;4404951;32;20256;-55
2021/07/04 03:45:26;;;;;;;5.85;3.17;;;;;;;;;;4403561;32;20616;-55
2021/07/04 03:47:52;;;;;;;11.10;5.65;;;;;;;;;;4403314;32;20613;-55
2021/07/04 03:50:18;;;;;;;4.07;3.10;;;;;;;;;;4404519;32;20299;-55
2021/07/04 03:52:43;;;;;;;3.37;2.17;;;;;;;;;;4403576;32;20407;-55
2021/07/04 03:55:11;;;;;;;4.05;2.47;;;;;;;;;;4403411;32;20300;-54
2021/07/04 03:57:37;;;;;;;2.72;1.95;;;;;;;;;;4404838;32;20772;-54
2021/07/04 04:00:05;;;;;;;2.80;2.35;;;;;;;;;;4404509;32;20253;-54
2021/07/04 04:02:31;;;;;;;3.30;2.22;;;;;;;;;;4404265;32;20292;-54
2021/07/04 04:04:58;;;;;;;3.25;2.20;;;;;;;;;;4403776;32;20384;-54
2021/07/04 04:07:24;;;;;;;4.25;2.58;;;;;;;;;;4404201;32;20308;-54
2021/07/04 04:09:51;;;;;;;2.75;2.25;;;;;;;;;;4389610;32;20281;-54
2021/07/04 04:12:20;;;;;;;3.20;2.72;;;;;;;;;;4389391;32;20357;-54
2021/07/04 04:14:46;;;;;;;8.70;2.58;;;;;;;;;;4388647;32;20265;-55
2021/07/04 04:17:12;;;;;;;2.15;1.92;;;;;;;;;;4401936;32;20660;-54
2021/07/04 04:19:37;;;;;;;2.83;2.10;;;;;;;;;;4389926;32;20230;-53
2021/07/04 04:22:03;;;;;;;6.03;2.08;;;;;;;;;;4403155;32;20550;-53
2021/07/04 04:24:29;;;;;;;2.50;2.30;;;;;;;;;;4403285;32;20198;-55
2021/07/04 04:26:54;;;;;;;3.60;1.98;;;;;;;;;;4404297;32;20695;-54
2021/07/04 04:29:20;;;;;;;3.20;2.58;;;;;;;;;;4403868;32;20296;-54
2021/07/04 04:31:47;;;;;;;2.20;2.00;;;;;;;;;;4396495;32;20751;-54
2021/07/04 04:34:13;;;;;;;2.97;2.40;;;;;;;;;;4387724;32;20289;-55
2021/07/04 04:36:38;;;;;;;3.30;3.00;;;;;;;;;;4388953;32;20256;-55
2021/07/04 04:39:05;;;;;;;3.42;2.95;;;;;;;;;;4387592;32;20230;-54
2021/07/04 04:41:33;;;;;;;3.70;3.28;;;;;;;;;;4388758;32;20698;-55
2021/07/04 04:43:59;;;;;;;3.62;3.33;;;;;;;;;;4391787;32;20193;-54
2021/07/04 04:46:24;;;;;;;3.45;2.83;;;;;;;;;;4403845;32;20590;-54
2021/07/04 04:48:50;;;;;;;5.60;3.25;;;;;;;;;;4403635;32;20210;-55
2021/07/04 04:51:15;;;;;;;3.72;2.87;;;;;;;;;;4404141;32;20218;-55
2021/07/04 04:53:41;;;;;;;4.62;2.40;;;;;;;;;;4403598;32;20205;-55
2021/07/04 04:56:06;;;;;;;2.42;1.92;;;;;;;;;;4403632;32;20311;-55
2021/07/04 04:58:32;;;;;;;2.65;2.42;;;;;;;;;;4403449;32;20316;-55
2021/07/04 05:00:57;;;;;;;2.40;2.03;;;;;;;;;;4403848;32;20284;-55
2021/07/04 05:03:23;;;;;;;2.42;2.15;;;;;;;;;;4403678;32;20597;-54
2021/07/04 05:05:48;;;;;;;2.53;2.20;;;;;;;;;;4403446;32;20239;-55
2021/07/04 05:08:15;;;;;;;2.95;2.10;;;;;;;;;;4403312;32;20214;-54
2021/07/04 05:10:41;;;;;;;2.90;2.37;;;;;;;;;;4391969;32;20342;-55
2021/07/04 05:13:06;;;;;;;2.65;2.37;;;;;;;;;;4388295;32;20685;-55
2021/07/04 05:15:32;;;;;;;2.85;2.12;;;;;;;;;;4400666;32;20374;-55
2021/07/04 05:17:57;;;;;;;7.25;3.25;;;;;;;;;;4402580;32;20263;-54
2021/07/04 05:20:23;;;;;;;4.45;2.60;;;;;;;;;;4402315;32;20308;-53
2021/07/04 05:22:48;;;;;;;2.90;2.50;;;;;;;;;;4402091;32;20271;-54
2021/07/04 05:25:14;;;;;;;2.45;2.17;;;;;;;;;;4403816;32;20288;-54
2021/07/04 05:27:39;;;;;;;2.62;2.10;;;;;;;;;;4403606;32;20683;-54
2021/07/04 05:30:06;;;;;;;2.95;2.12;;;;;;;;;;4403791;32;20282;-55
2021/07/04 05:32:31;;;;;;;2.95;2.05;;;;;;;;;;4403077;32;20209;-53
2021/07/04 05:34:58;;;;;;;2.80;2.33;;;;;;;;;;4403866;32;20236;-55
2021/07/04 05:37:23;;;;;;;3.75;2.62;;;;;;;;;;4406125;32;20213;-54
2021/07/04 05:39:49;;;;;;;3.15;2.85;;;;;;;;;;4406308;32;20555;-54
2021/07/04 05:42:14;;;;;;;4.03;2.65;;;;;;;;;;4406454;32;20276;-55
2021/07/04 05:44:40;;;;;;;3.08;2.78;;;;;;;;;;4406156;32;20298;-54
2021/07/04 05:47:07;;;;;;;3.90;2.70;;;;;;;;;;4405171;32;20326;-54
2021/07/04 05:49:33;;;;;;;5.12;2.60;;;;;;;;;;4406247;32;20244;-54
2021/07/04 05:51:58;;;;;;;2.62;2.42;;;;;;;;;;4406867;32;20655;-55
2021/07/04 05:54:23;;;;;;;5.28;2.80;;;;;;;;;;4406444;32;20217;-54
2021/07/04 05:56:49;;;;;;;2.60;2.40;;;;;;;;;;4406579;32;20639;-54
2021/07/04 05:59:15;;;;;;;3.22;2.50;;;;;;;;;;4404995;32;20245;-54
2021/07/04 06:01:40;;;;;;;4.80;3.70;;;;;;;;;;4405039;32;20315;-56
2021/07/04 06:04:06;;;;;;;10.40;2.70;;;;;;;;;;4404474;32;20528;-53
2021/07/04 06:06:32;;;;;;;3.50;2.45;;;;;;;;;;4404197;32;20684;-54
2021/07/04 06:08:58;;;;;;;3.10;2.55;;;;;;;;;;4403581;32;20584;-54
2021/07/04 06:11:23;;;;;;;3.17;2.72;;;;;;;;;;4405456;32;20271;-54
2021/07/04 06:13:49;;;;;;;3.42;2.70;;;;;;;;;;4404911;32;20221;-53
2021/07/04 06:16:14;;;;;;;2.55;2.17;;;;;;;;;;4406044;32;20610;-54
2021/07/04 06:18:40;;;;;;;3.03;2.70;;;;;;;;;;4404037;32;20411;-54
2021/07/04 06:21:05;;;;;;;2.83;2.60;;;;;;;;;;4405654;32;20329;-53
2021/07/04 06:23:31;;;;;;;3.92;2.55;;;;;;;;;;4396798;32;20225;-55
2021/07/04 06:25:56;;;;;;;2.58;2.37;;;;;;;;;;4405857;32;20446;-56
2021/07/04 06:28:22;;;;;;;4.43;2.95;;;;;;;;;;4403870;32;20344;-54
2021/07/04 06:30:47;;;;;;;6.55;2.85;;;;;;;;;;4405747;32;20276;-55
2021/07/04 06:33:13;;;;;;;3.03;2.67;;;;;;;;;;4403217;32;20237;-54
2021/07/04 06:35:39;;;;;;;3.10;2.47;;;;;;;;;;4405542;32;20714;-57
2021/07/04 06:38:04;;;;;;;4.07;2.90;;;;;;;;;;4405070;32;20214;-55
2021/07/04 06:40:30;;;;;;;6.15;2.60;;;;;;;;;;4403876;32;20303;-56
2021/07/04 06:42:56;;;;;;;4.10;2.60;;;;;;;;;;4404875;32;20255;-55
2021/07/04 06:45:21;;;;;;;4.30;2.78;;;;;;;;;;4405053;32;20299;-54
2021/07/04 06:47:49;;;;;;;5.20;2.72;;;;;;;;;;4404582;32;20199;-54
2021/07/04 06:50:16;;;;;;;4.45;3.35;;;;;;;;;;4405058;32;20331;-54
2021/07/04 06:52:43;;;;;;;7.95;2.97;;;;;;;;;;4405503;32;21598;-54
2021/07/04 06:55:10;;;;;;;3.80;2.35;;;;;;;;;;4405797;32;20306;-54
2021/07/04 06:57:35;;;;;;;2.85;2.30;;;;;;;;;;4390910;32;20285;-55
2021/07/04 07:00:06;;;;;;;3.10;2.50;;;;;;;;;;4390186;32;20245;-54
2021/07/04 07:02:31;;;;;;;3.20;2.40;;;;;;;;;;4396621;32;20219;-54
2021/07/04 07:04:56;;;;;;;4.47;2.37;;;;;;;;;;4404622;32;20305;-54
2021/07/04 07:07:22;;;;;;;3.17;2.70;;;;;;;;;;4404704;32;20338;-55
2021/07/04 07:09:48;;;;;;;3.20;2.67;;;;;;;;;;4395343;32;20221;-54
2021/07/04 07:12:14;;;;;;;4.20;2.90;;;;;;;;;;4403309;32;20620;-55
2021/07/04 07:14:40;;;;;;;3.70;2.45;;;;;;;;;;4404246;32;20253;-54
2021/07/04 07:17:06;;;;;;;3.70;2.75;;;;;;;;;;4404950;32;20345;-56
2021/07/04 07:19:32;;;;;;;4.72;2.83;;;;;;;;;;4404620;32;20351;-56
2021/07/04 07:21:57;;;;;;;3.87;2.92;;;;;;;;;;4404468;32;20698;-54
2021/07/04 07:24:23;;;;;;;5.43;2.25;;;;;;;;;;4404739;32;20221;-54
2021/07/04 07:26:48;;;;;;;3.12;2.70;;;;;;;;;;4404311;32;20343;-55
2021/07/04 07:29:14;;;;;;;4.35;3.30;;;;;;;;;;4404544;32;20668;-54
2021/07/04 07:31:39;;;;;;;3.85;2.45;;;;;;;;;;4395951;32;20320;-54
2021/07/04 07:34:05;;;;;;;4.60;2.80;;;;;;;;;;4399438;32;20665;-54
2021/07/04 07:36:31;;;;;;;3.95;3.03;;;;;;;;;;4402981;32;20284;-56
2021/07/04 07:38:56;;;;;;;2.55;2.33;;;;;;;;;;4403381;32;20334;-55
2021/07/04 07:41:22;;;;;;;2.60;2.40;;;;;;;;;;4404586;32;20330;-56
2021/07/04 07:43:48;;;;;;;3.55;2.75;;;;;;;;;;4403390;32;20256;-55
2021/07/04 07:46:14;;;;;;;2.95;2.60;;;;;;;;;;4404270;32;20360;-56
2021/07/04 07:48:40;;;;;;;4.18;2.78;;;;;;;;;;4402882;32;20261;-56
2021/07/04 07:51:06;;;;;;;5.03;2.37;;;;;;;;;;4404569;32;20271;-54
2021/07/04 07:53:32;;;;;;;13.25;3.80;;;;;;;;;;4403151;32;20551;-54
2021/07/04 07:55:57;;;;;;;4.70;2.90;;;;;;;;;;4404654;32;20288;-55
2021/07/04 07:58:23;;;;;;;4.12;3.55;;;;;;;;;;4404001;32;20240;-54
2021/07/04 08:00:48;;;;;;;5.35;3.33;;;;;;;;;;4402975;32;20292;-55
2021/07/04 08:03:14;;;;;;;6.30;3.35;;;;;;;;;;4404078;32;20234;-55
2021/07/04 08:05:40;;;;;;;5.30;3.67;;;;;;;;;;4403074;32;20609;-55
2021/07/04 08:08:06;;;;;;;3.80;3.10;;;;;;;;;;4403186;32;20228;-55
2021/07/04 08:10:32;;;;;;;4.87;2.87;;;;;;;;;;4402647;32;20300;-56
2021/07/04 08:12:57;;;;;;;8.30;3.30;;;;;;;;;;4404294;32;21377;-55
2021/07/04 08:15:23;;;;;;;4.15;3.12;;;;;;;;;;4402314;32;20323;-56
2021/07/04 08:17:49;;;;;;;3.25;2.95;;;;;;;;;;4403773;32;20632;-55
2021/07/04 08:20:16;;;;;;;2.83;2.62;;;;;;;;;;4404009;32;20353;-56
2021/07/04 08:22:42;;;;;;;7.75;3.05;;;;;;;;;;4402570;32;20664;-55
2021/07/04 08:25:08;;;;;;;4.03;3.65;;;;;;;;;;4404336;32;20249;-56
2021/07/04 08:27:33;;;;;;;3.20;2.45;;;;;;;;;;4403806;32;20403;-55
2021/07/04 08:29:59;;;;;;;7.18;3.75;;;;;;;;;;4403565;32;20585;-55
2021/07/04 08:32:25;;;;;;;3.03;2.45;;;;;;;;;;4392475;32;20338;-55
2021/07/04 08:34:50;;;;;;;3.67;2.85;;;;;;;;;;4403693;32;20319;-54
2021/07/04 08:37:16;;;;;;;3.78;3.05;;;;;;;;;;4403925;32;20641;-54
2021/07/04 08:39:41;;;;;;;3.25;2.65;;;;;;;;;;4403839;32;20217;-55
2021/07/04 08:42:07;;;;;;;4.85;3.17;;;;;;;;;;4404099;32;20692;-55
2021/07/04 08:44:32;;;;;;;4.07;2.85;;;;;;;;;;4403690;32;20306;-54
2021/07/04 08:46:59;;;;;;;4.47;2.42;;;;;;;;;;4403895;32;20306;-55
2021/07/04 08:49:25;;;;;;;3.42;2.83;;;;;;;;;;4401089;32;20531;-55
2021/07/04 08:51:51;;;;;;;3.37;2.70;;;;;;;;;;4396310;32;20314;-57
2021/07/04 08:54:17;;;;;;;4.25;2.83;;;;;;;;;;4392312;32;20413;-54
2021/07/04 08:56:46;;;;;;;11.20;2.90;;;;;;;;;;4387419;32;20670;-55
2021/07/04 08:59:12;;;;;;;3.28;2.65;;;;;;;;;;4388677;32;20221;-56
2021/07/04 09:01:45;;;;;;;6.10;2.92;;;;;;;;;;4388408;32;20269;-54
2021/07/04 09:04:14;;;;;;;3.03;2.10;;;;;;;;;;4388084;32;20347;-56
2021/07/04 09:06:41;;;;;;;3.42;2.55;;;;;;;;;;4387026;32;20230;-56
2021/07/04 09:09:19;;;;;;;3.45;2.55;;;;;;;;;;4391905;32;20225;-55
2021/07/04 09:12:04;;;;;;;3.60;2.50;;;;;;;;;;4403124;32;20181;-56
2021/07/04 09:14:31;;;;;;;3.53;2.65;;;;;;;;;;4402591;32;20256;-56
2021/07/04 09:16:57;;;;;;;3.10;2.55;;;;;;;;;;4402983;32;20369;-56
2021/07/04 09:19:24;;;;;;;4.15;2.55;;;;;;;;;;4402043;32;20669;-55
2021/07/04 09:22:06;;;;;;;2.78;2.45;;;;;;;;;;4403190;32;20289;-55
2021/07/04 09:24:43;;;;;;;7.87;2.42;;;;;;;;;;4402386;32;20503;-55
2021/07/04 09:27:13;;;;;;;2.97;2.55;;;;;;;;;;4402842;32;20754;-55
2021/07/04 09:29:48;;;;;;;4.80;2.92;;;;;;;;;;4402903;32;20412;-55
2021/07/04 09:32:25;;;;;;;4.22;2.30;;;;;;;;;;4392301;32;20679;-56
2021/07/04 09:35:00;;;;;;;2.92;2.30;;;;;;;;;;4387893;32;20821;-56
2021/07/04 09:37:51;;;;;;;3.28;2.08;;;;;;;;;;4388033;32;20284;-55
2021/07/04 09:40:25;;;;;;;2.75;2.12;;;;;;;;;;4388130;32;20202;-55
2021/07/04 09:43:18;;;;;;;2.72;2.10;;;;;;;;;;4387676;32;20631;-56
2021/07/04 09:45:46;;;;;;;3.60;2.03;;;;;;;;;;4388271;32;20243;-56
2021/07/04 09:48:34;;;;;;;3.85;2.20;;;;;;;;;;4387633;32;20642;-55
2021/07/04 09:51:14;;;;;;;1.70;1.60;;;;;;;;;;4386956;32;20302;-55
2021/07/04 09:53:46;;;;;;;2.00;1.80;;;;;;;;;;4387980;32;20293;-55
2021/07/04 09:56:16;;;;;;;2.47;1.67;;;;;;;;;;4387014;32;20644;-55
2021/07/04 09:58:44;;;;;;;4.90;2.22;;;;;;;;;;4387623;32;20222;-56
2021/07/04 10:01:10;;;;;;;4.60;1.62;;;;;;;;;;4386549;32;20221;-55
2021/07/04 10:03:42;;;;;;;2.00;1.77;;;;;;;;;;4387688;32;20242;-55
2021/07/04 10:06:10;;;;;;;2.58;1.92;;;;;;;;;;4388109;32;20352;-55
2021/07/04 10:08:37;;;;;;;3.53;2.03;;;;;;;;;;4389788;32;20286;-55
2021/07/04 10:11:06;;;;;;;2.37;1.98;;;;;;;;;;4403334;32;20312;-54
2021/07/04 10:13:33;;;;;;;5.40;2.12;;;;;;;;;;4401684;32;20237;-55
2021/07/04 10:15:59;;;;;;;3.08;1.60;;;;;;;;;;4392891;32;20278;-56
2021/07/04 10:18:25;;;;;;;3.65;2.58;;;;;;;;;;4402684;32;20248;-56
2021/07/04 10:20:52;;;;;;;7.25;1.85;;;;;;;;;;4403146;32;20335;-57
2021/07/04 10:23:20;;;;;;;4.07;2.28;;;;;;;;;;4404137;32;20217;-55
2021/07/04 10:25:48;;;;;;;3.08;2.10;;;;;;;;;;4405402;32;20550;-56
2021/07/04 10:28:36;;;;;;;3.95;2.50;;;;;;;;;;4405492;32;20235;-54
2021/07/04 10:31:06;;;;;;;3.67;2.10;;;;;;;;;;4402691;32;20277;-55
2021/07/04 10:33:35;;;;;;;4.78;2.03;;;;;;;;;;4390695;32;20639;-56
2021/07/04 10:36:21;;;;;;;3.35;1.62;;;;;;;;;;4390414;32;20321;-54
2021/07/04 10:38:47;;;;;;;3.17;2.03;;;;;;;;;;4390178;32;20425;-55
2021/07/04 10:41:19;;;;;;;3.08;1.77;;;;;;;;;;4398762;32;20332;-55
2021/07/04 10:44:12;;;;;;;3.25;1.92;;;;;;;;;;4405136;32;20267;-54
2021/07/04 10:46:44;;;;;;;3.17;2.00;;;;;;;;;;4390327;32;20242;-56
2021/07/04 10:49:12;;;;;;;2.33;2.12;;;;;;;;;;4391580;32;20259;-56
2021/07/04 10:52:10;;;;;;;8.45;1.90;;;;;;;;;;4405152;32;20213;-56
2021/07/04 10:54:39;;;;;;;2.33;1.58;;;;;;;;;;4405596;32;20221;-56
2021/07/04 10:57:13;;;;;;;2.92;1.75;;;;;;;;;;4404374;32;20345;-55
2021/07/04 11:00:00;;;;;;;2.00;1.52;;;;;;;;;;4402631;32;20674;-55
2021/07/04 11:02:38;;;;;;;2.12;1.50;;;;;;;;;;4404184;32;20316;-55
2021/07/04 11:05:08;;;;;;;2.08;1.62;;;;;;;;;;4404814;32;20256;-56
2021/07/04 11:07:52;;;;;;;1.95;1.80;;;;;;;;;;4403325;32;20256;-56
2021/07/04 11:10:19;;;;;;;2.67;1.52;;;;;;;;;;4403831;32;20704;-55
2021/07/04 11:12:45;;;;;;;1.62;1.37;;;;;;;;;;4404867;32;20201;-55
2021/07/04 11:15:11;;;;;;;3.40;1.55;;;;;;;;;;4388242;32;20300;-56
2021/07/04 11:17:55;;;;;;;2.03;1.37;;;;;;;;;;4403775;32;20362;-55
2021/07/04 11:20:21;;;;;;;1.73;1.30;;;;;;;;;;4404446;32;20333;-55
2021/07/04 11:23:25;;;;;;;1.60;1.50;;;;;;;;;;4403115;32;20245;-55
2021/07/04 11:25:57;;;;;;;4.00;1.85;;;;;;;;;;4404834;32;20527;-56
2021/07/04 11:28:33;;;;;;;3.70;1.67;;;;;;;;;;4404414;32;20313;-55
2021/07/04 11:30:59;;;;;;;1.85;1.33;;;;;;;;;;4404332;32;20244;-55
2021/07/04 11:33:32;;;;;;;3.58;1.77;;;;;;;;;;4403833;32;20241;-56
2021/07/04 11:36:04;;;;;;;3.70;2.00;;;;;;;;;;4403044;32;20305;-56
2021/07/04 11:38:33;;;;;;;2.40;1.60;;;;;;;;;;4403189;32;20406;-55
2021/07/04 11:40:59;;;;;;;3.45;1.10;;;;;;;;;;4402966;32;20216;-55
2021/07/04 11:43:27;;;;;;;2.62;1.77;;;;;;;;;;4402575;32;20255;-55
2021/07/04 11:45:59;;;;;;;1.60;1.30;;;;;;;;;;4402640;32;20677;-56
2021/07/04 11:48:54;;;;;;;4.57;2.05;;;;;;;;;;4402091;32;20721;-55
2021/07/04 11:51:30;;;;;;;1.92;1.45;;;;;;;;;;4403147;32;20189;-56
2021/07/04 11:54:08;;;;;;;5.53;1.35;;;;;;;;;;4404667;32;20225;-56
2021/07/04 11:56:34;;;;;;;10.23;1.65;;;;;;;;;;4404635;32;20220;-56
2021/07/04 11:59:14;;;;;;;1.30;1.10;;;;;;;;;;4404913;32;20233;-54
2021/07/04 12:01:54;;;;;;;1.48;1.17;;;;;;;;;;4404399;32;20216;-55
2021/07/04 12:04:29;;;;;;;1.33;1.10;;;;;;;;;;4404690;32;20665;-55
2021/07/04 12:07:09;;;;;;;1.92;1.30;;;;;;;;;;4404781;32;20557;-56
2021/07/04 12:09:46;;;;;;;1.15;1.05;;;;;;;;;;4403880;32;20292;-56
2021/07/04 12:12:21;;;;;;;1.75;1.45;;;;;;;;;;4389556;32;20201;-56
2021/07/04 12:14:49;;;;;;;1.27;1.10;;;;;;;;;;4395477;32;20236;-55
2021/07/04 12:17:48;;;;;;;2.25;1.30;;;;;;;;;;4402739;32;20260;-55
2021/07/04 12:20:22;;;;;;;1.30;1.08;;;;;;;;;;4402139;32;20238;-57
2021/07/04 12:22:52;;;;;;;1.98;1.45;;;;;;;;;;4404729;32;20239;-56
2021/07/04 12:25:30;;;;;;;1.05;0.93;;;;;;;;;;4404145;32;20303;-57
2021/07/04 12:28:00;;;;;;;2.25;1.67;;;;;;;;;;4404389;32;20258;-56
2021/07/04 12:30:27;;;;;;;2.55;1.33;;;;;;;;;;4403813;32;20253;-55
2021/07/04 12:32:53;;;;;;;1.30;1.20;;;;;;;;;;4389149;32;20577;-57
2021/07/04 12:35:26;;;;;;;3.10;1.40;;;;;;;;;;4389171;32;20298;-56
2021/07/04 12:37:53;;;;;;;1.65;1.25;;;;;;;;;;4389006;32;20225;-56
2021/07/04 12:40:23;;;;;;;1.52;1.12;;;;;;;;;;4388782;32;20607;-55
2021/07/04 12:42:49;;;;;;;1.48;1.10;;;;;;;;;;4388770;32;20585;-56
2021/07/04 12:45:19;;;;;;;1.40;1.00;;;;;;;;;;4387059;32;20300;-55
2021/07/04 12:47:56;;;;;;;4.82;1.50;;;;;;;;;;4388683;32;20638;-55
2021/07/04 12:50:21;;;;;;;1.52;1.25;;;;;;;;;;4388412;32;20194;-55
2021/07/04 12:52:59;;;;;;;2.92;1.25;;;;;;;;;;4388709;32;20186;-55
2021/07/04 12:55:37;;;;;;;1.83;1.30;;;;;;;;;;4389145;32;20202;-56
2021/07/04 12:58:36;;;;;;;3.80;1.37;;;;;;;;;;4388519;32;20693;-56
2021/07/04 13:01:22;;;;;;;1.62;1.52;;;;;;;;;;4389052;32;20263;-55
2021/07/04 13:04:02;;;;;;;1.20;1.00;;;;;;;;;;4387816;32;20312;-58
2021/07/04 13:06:57;;;;;;;1.30;1.20;;;;;;;;;;4388438;32;20243;-56
2021/07/04 13:09:28;;;;;;;1.23;1.10;;;;;;;;;;4394118;32;20536;-56
2021/07/04 13:12:16;;;;;;;1.35;1.25;;;;;;;;;;4401883;32;20297;-56
2021/07/04 13:14:42;;;;;;;2.55;1.60;;;;;;;;;;4401251;32;20315;-56
2021/07/04 13:17:26;;;;;;;2.15;1.50;;;;;;;;;;4403413;32;20714;-55
2021/07/04 13:19:55;;;;;;;2.30;1.40;;;;;;;;;;4403858;32;20649;-56
2021/07/04 13:22:25;;;;;;;1.40;1.30;;;;;;;;;;4403539;32;20210;-56
2021/07/04 13:25:01;;;;;;;2.00;1.40;;;;;;;;;;4391074;32;20320;-57
2021/07/04 13:27:33;;;;;;;2.15;1.45;;;;;;;;;;4386412;32;20232;-56
2021/07/04 13:30:10;;;;;;;1.52;1.42;;;;;;;;;;4386416;32;20341;-55
2021/07/04 13:33:02;;;;;;;2.37;1.42;;;;;;;;;;4398664;32;20221;-56
2021/07/04 13:35:31;;;;;;;3.55;1.60;;;;;;;;;;4403418;32;20302;-56
2021/07/04 13:38:03;;;;;;;2.05;1.40;;;;;;;;;;4401805;32;20300;-56
2021/07/04 13:40:29;;;;;;;1.90;1.50;;;;;;;;;;4400652;32;20213;-57
2021/07/04 13:42:56;;;;;;;2.50;1.83;;;;;;;;;;4399197;32;20225;-56
2021/07/04 13:45:38;;;;;;;1.75;1.50;;;;;;;;;;4400039;32;20533;-57
2021/07/04 13:48:16;;;;;;;2.33;1.60;;;;;;;;;;4399562;32;20577;-57
2021/07/04 13:50:45;;;;;;;1.73;1.40;;;;;;;;;;4396475;32;20215;-56
2021/07/04 13:53:12;;;;;;;1.73;1.08;;;;;;;;;;4401531;32;20409;-56
2021/07/04 13:55:38;;;;;;;3.12;1.70;;;;;;;;;;4401759;32;20303;-55
2021/07/04 13:58:05;;;;;;;2.83;1.40;;;;;;;;;;4406087;32;20348;-56
2021/07/04 14:00:31;;;;;;;4.12;2.10;;;;;;;;;;4406236;32;20622;-56
2021/07/04 14:02:57;;;;;;;3.60;1.90;;;;;;;;;;4405925;32;20338;-56
2021/07/04 14:05:23;;;;;;;1.80;1.60;;;;;;;;;;4404279;32;20221;-56
2021/07/04 14:07:48;;;;;;;2.10;1.90;;;;;;;;;;4405465;32;20692;-56
2021/07/04 14:10:14;;;;;;;2.08;1.40;;;;;;;;;;4405693;32;20284;-57
2021/07/04 14:12:41;;;;;;;1.70;1.50;;;;;;;;;;4405202;32;20855;-56
2021/07/04 14:15:07;;;;;;;2.75;1.83;;;;;;;;;;4400716;32;20220;-56
2021/07/04 14:17:32;;;;;;;2.30;1.42;;;;;;;;;;4405059;32;20758;-56
2021/07/04 14:20:00;;;;;;;2.67;1.80;;;;;;;;;;4405647;32;20217;-57
2021/07/04 14:22:26;;;;;;;3.72;2.12;;;;;;;;;;4404169;32;20230;-57
2021/07/04 14:24:52;;;;;;;2.95;1.73;;;;;;;;;;4405885;32;20599;-56
2021/07/04 14:27:17;;;;;;;2.85;1.60;;;;;;;;;;4404833;32;20330;-58
2021/07/04 14:29:43;;;;;;;2.22;1.52;;;;;;;;;;4405310;32;20580;-55
2021/07/04 14:32:08;;;;;;;2.40;1.60;;;;;;;;;;4405615;32;20386;-56
2021/07/04 14:34:34;;;;;;;1.95;1.12;;;;;;;;;;4405425;32;20221;-56
2021/07/04 14:36:59;;;;;;;2.05;1.80;;;;;;;;;;4405617;32;20726;-56
2021/07/04 14:39:25;;;;;;;1.25;1.15;;;;;;;;;;4405329;32;20233;-56
2021/07/04 14:41:51;;;;;;;1.52;1.40;;;;;;;;;;4405450;32;20295;-56
2021/07/04 14:44:17;;;;;;;1.70;1.60;;;;;;;;;;4405218;32;20225;-56
2021/07/04 14:46:43;;;;;;;2.87;1.50;;;;;;;;;;4405608;32;20342;-57
2021/07/04 14:49:09;;;;;;;2.97;1.52;;;;;;;;;;4403973;32;20225;-57
2021/07/04 14:51:49;;;;;;;2.30;1.70;;;;;;;;;;4405056;32;20350;-56